Time;durP1;ratioP1;P1;durP2;ratioP2;P2;SDS_P1;SDS_P2;PMS_P1;PMS_P2;Temp;Humidity;BMP_temperature;BMP_pressure;BME280_temperature;BME280_humidity;BME280_pressure;Samples;Min_cycle;Max_cycle;Signal;HPM_P1;HPM_P2
2023/08/28 00:00:26;;;;;;;2.80;2.60;;;14.70;1.00;;;;;;6338309;22;20238;-57
2023/08/28 00:02:53;;;;;;;2.60;2.40;;;14.60;1.00;;;;;;6338489;22;20396;-57
2023/08/28 00:05:18;;;;;;;3.33;2.63;;;14.60;1.00;;;;;;6338714;22;20362;-56
2023/08/28 00:07:44;;;;;;;3.27;2.20;;;14.60;1.00;;;;;;6338056;22;20415;-57
2023/08/28 00:10:09;;;;;;;3.13;2.20;;;14.50;1.00;;;;;;6339440;22;20147;-58
2023/08/28 00:12:40;;;;;;;3.67;2.50;;;14.50;1.00;;;;;;6340226;22;20148;-55
2023/08/28 00:15:09;;;;;;;4.13;3.07;;;14.50;1.00;;;;;;6339694;22;20151;-57
2023/08/28 00:17:36;;;;;;;2.70;2.50;;;14.50;1.00;;;;;;6339888;22;20484;-58
2023/08/28 00:20:03;;;;;;;2.77;2.57;;;14.50;1.00;;;;;;6339866;22;20411;-56
2023/08/28 00:22:29;;;;;;;3.73;2.87;;;14.50;1.00;;;;;;6338713;22;20852;-57
2023/08/28 00:24:54;;;;;;;3.37;2.70;;;14.40;1.00;;;;;;6340361;22;20385;-58
2023/08/28 00:27:20;;;;;;;3.73;2.90;;;14.40;1.00;;;;;;6340224;22;20267;-55
2023/08/28 00:29:46;;;;;;;4.43;3.33;;;14.40;1.00;;;;;;6340494;22;20155;-56
2023/08/28 00:32:11;;;;;;;5.83;3.00;;;14.30;1.00;;;;;;6340970;22;20130;-57
2023/08/28 00:34:37;;;;;;;3.90;2.80;;;14.30;1.00;;;;;;6340293;22;20128;-58
2023/08/28 00:37:04;;;;;;;2.80;2.60;;;14.20;1.00;;;;;;6340277;22;20179;-55
2023/08/28 00:39:29;;;;;;;5.93;2.70;;;14.20;1.00;;;;;;6340585;22;20434;-57
2023/08/28 00:41:55;;;;;;;3.40;3.10;;;14.20;1.00;;;;;;6340259;22;20456;-57
2023/08/28 00:44:21;;;;;;;4.03;3.73;;;14.10;1.00;;;;;;6340688;22;20534;-57
2023/08/28 00:46:46;;;;;;;7.10;3.10;;;14.00;1.00;;;;;;6340263;22;20167;-57
2023/08/28 00:49:12;;;;;;;4.37;3.97;;;14.00;1.00;;;;;;6338784;22;20232;-56
2023/08/28 00:51:39;;;;;;;3.77;3.40;;;14.00;1.00;;;;;;6337993;22;20171;-58
2023/08/28 00:54:04;;;;;;;4.60;3.50;;;14.00;1.00;;;;;;6337753;22;20484;-57
2023/08/28 00:56:30;;;;;;;4.03;3.63;;;14.00;1.00;;;;;;6339357;22;20381;-58
2023/08/28 00:58:56;;;;;;;3.97;3.57;;;14.00;1.00;;;;;;6337584;22;20178;-56
2023/08/28 01:01:22;;;;;;;3.60;2.87;;;14.10;1.00;;;;;;6339180;22;20237;-57
2023/08/28 01:03:47;;;;;;;3.40;3.10;;;14.10;1.00;;;;;;6338973;22;20151;-58
2023/08/28 01:06:32;;;;;;;4.17;3.77;;;14.10;1.00;;;;;;6338796;22;20636;-57
2023/08/28 01:09:22;;;;;;;4.20;3.13;;;14.10;1.00;;;;;;6338353;22;20182;-57
2023/08/28 01:11:56;;;;;;;6.90;3.47;;;14.10;1.00;;;;;;6336868;22;20438;-58
2023/08/28 01:14:25;;;;;;;3.83;3.53;;;14.10;1.00;;;;;;6339342;22;20452;-58
2023/08/28 01:16:56;;;;;;;3.60;3.30;;;14.10;1.00;;;;;;6340275;22;20661;-58
2023/08/28 01:19:48;;;;;;;4.03;3.37;;;14.10;1.00;;;;;;6337739;22;20385;-57
2023/08/28 01:22:30;;;;;;;3.53;3.23;;;14.10;1.00;;;;;;6330969;22;20397;-57
2023/08/28 01:25:15;;;;;;;3.13;2.83;;;14.10;1.00;;;;;;6338633;22;20385;-58
2023/08/28 01:27:41;;;;;;;4.37;2.97;;;14.10;1.00;;;;;;6338212;22;20483;-57
2023/08/28 01:30:15;;;;;;;5.03;3.20;;;14.10;1.00;;;;;;6336708;22;20413;-58
2023/08/28 01:32:42;;;;;;;4.07;3.07;;;14.00;1.00;;;;;;6339920;22;20621;-57
2023/08/28 01:35:24;;;;;;;4.60;3.57;;;14.00;1.00;;;;;;6339998;22;20620;-58
2023/08/28 01:38:12;;;;;;;3.20;2.70;;;14.00;1.00;;;;;;6340551;22;20741;-57
2023/08/28 01:40:59;;;;;;;3.73;3.43;;;14.00;1.00;;;;;;6340255;22;20357;-56
2023/08/28 01:43:29;;;;;;;3.00;2.80;;;14.00;1.00;;;;;;6339816;22;20437;-54
2023/08/28 01:45:55;;;;;;;5.20;3.10;;;14.00;1.00;;;;;;6337513;22;20433;-58
2023/08/28 01:48:20;;;;;;;3.37;2.70;;;14.00;1.00;;;;;;6338681;22;20464;-57
2023/08/28 01:50:46;;;;;;;3.70;3.23;;;14.00;1.00;;;;;;6337204;22;20224;-57
2023/08/28 01:53:13;;;;;;;4.40;3.50;;;14.00;1.00;;;;;;6339647;22;20154;-57
2023/08/28 01:55:44;;;;;;;4.63;3.50;;;14.00;1.00;;;;;;6339631;22;20138;-57
2023/08/28 01:58:10;;;;;;;3.20;2.87;;;14.00;1.00;;;;;;6339585;22;20430;-57
2023/08/28 02:00:36;;;;;;;4.67;2.90;;;14.00;1.00;;;;;;6338906;22;20460;-58
2023/08/28 02:03:02;;;;;;;3.93;3.17;;;14.00;1.00;;;;;;6338632;22;20392;-58
2023/08/28 02:05:28;;;;;;;2.83;2.60;;;14.00;1.00;;;;;;6339392;22;20233;-57
2023/08/28 02:07:53;;;;;;;3.40;3.10;;;14.00;1.00;;;;;;6338934;22;20350;-57
2023/08/28 02:10:19;;;;;;;3.70;3.00;;;14.00;1.00;;;;;;6338398;22;20223;-58
2023/08/28 02:12:45;;;;;;;4.20;3.53;;;14.00;1.00;;;;;;6339064;22;20228;-58
2023/08/28 02:15:10;;;;;;;4.93;3.00;;;14.00;1.00;;;;;;6339373;22;20220;-56
2023/08/28 02:17:36;;;;;;;3.57;3.27;;;14.00;1.00;;;;;;6339064;22;20173;-58
2023/08/28 02:20:01;;;;;;;3.70;3.13;;;14.00;1.00;;;;;;6338766;22;20281;-58
2023/08/28 02:22:27;;;;;;;3.30;3.00;;;14.00;1.00;;;;;;6337723;22;20515;-57
2023/08/28 02:24:53;;;;;;;3.60;3.30;;;13.90;1.00;;;;;;6340018;22;20486;-58
2023/08/28 02:27:18;;;;;;;3.40;3.10;;;13.90;1.00;;;;;;6338435;22;20190;-58
2023/08/28 02:29:44;;;;;;;4.40;3.13;;;13.90;1.00;;;;;;6337940;22;20147;-58
2023/08/28 02:32:09;;;;;;;6.97;3.37;;;13.90;1.00;;;;;;6339023;22;20142;-58
2023/08/28 02:34:35;;;;;;;3.33;3.03;;;13.90;1.00;;;;;;6339898;22;20138;-58
2023/08/28 02:37:01;;;;;;;3.00;2.70;;;13.90;1.00;;;;;;6340474;22;20387;-57
2023/08/28 02:39:27;;;;;;;3.10;2.67;;;13.90;1.00;;;;;;6339458;22;20434;-58
2023/08/28 02:41:52;;;;;;;5.63;2.97;;;13.90;1.00;;;;;;6339044;22;20464;-57
2023/08/28 02:44:18;;;;;;;3.40;3.10;;;13.90;1.00;;;;;;6337485;22;20226;-57
2023/08/28 02:46:44;;;;;;;3.50;3.20;;;13.90;1.00;;;;;;6338870;22;20529;-57
2023/08/28 02:49:09;;;;;;;4.90;3.13;;;13.80;1.00;;;;;;6340033;22;20423;-58
2023/08/28 02:51:35;;;;;;;6.30;3.30;;;13.80;1.00;;;;;;6339814;22;20182;-59
2023/08/28 02:54:01;;;;;;;4.50;3.63;;;13.80;1.00;;;;;;6339969;22;20208;-57
2023/08/28 02:56:36;;;;;;;3.63;3.17;;;13.80;1.00;;;;;;6337885;22;20405;-58
2023/08/28 02:59:02;;;;;;;3.63;3.33;;;13.80;1.00;;;;;;6339326;22;20212;-58
2023/08/28 03:01:27;;;;;;;2.93;2.73;;;13.80;1.00;;;;;;6340047;22;20369;-57
2023/08/28 03:03:53;;;;;;;3.33;3.03;;;13.80;1.00;;;;;;6339690;22;20151;-58
2023/08/28 03:06:19;;;;;;;3.50;3.20;;;13.80;1.00;;;;;;6340323;22;20206;-57
2023/08/28 03:08:44;;;;;;;3.60;3.30;;;13.80;1.00;;;;;;6340456;22;20220;-57
2023/08/28 03:11:10;;;;;;;4.43;3.00;;;13.80;1.00;;;;;;6341135;22;20131;-58
2023/08/28 03:13:36;;;;;;;2.87;2.60;;;13.80;1.00;;;;;;6340681;22;20128;-58
2023/08/28 03:16:02;;;;;;;3.50;3.20;;;13.80;1.00;;;;;;6340379;22;20224;-55
2023/08/28 03:18:28;;;;;;;3.80;3.50;;;13.70;1.00;;;;;;6339990;22;20163;-59
2023/08/28 03:20:53;;;;;;;3.23;2.93;;;13.70;1.00;;;;;;6340387;22;20389;-58
2023/08/28 03:23:19;;;;;;;3.37;2.73;;;13.70;1.00;;;;;;6340348;22;20575;-58
2023/08/28 03:25:45;;;;;;;3.30;3.00;;;13.70;1.00;;;;;;6340003;22;20159;-57
2023/08/28 03:28:10;;;;;;;3.50;2.90;;;13.60;1.00;;;;;;6340266;22;20147;-57
2023/08/28 03:30:36;;;;;;;3.20;2.90;;;13.60;1.00;;;;;;6341487;22;20238;-57
2023/08/28 03:33:02;;;;;;;3.90;2.63;;;13.60;1.00;;;;;;6341828;22;20480;-57
2023/08/28 03:35:27;;;;;;;4.10;2.50;;;13.60;1.00;;;;;;6340981;22;20511;-56
2023/08/28 03:37:53;;;;;;;4.30;3.40;;;13.60;1.00;;;;;;6339899;22;20139;-58
2023/08/28 03:40:19;;;;;;;4.03;3.13;;;13.60;1.00;;;;;;6338138;22;20175;-56
2023/08/28 03:42:44;;;;;;;3.63;2.83;;;13.60;1.00;;;;;;6339526;22;20275;-58
2023/08/28 03:45:10;;;;;;;2.80;2.40;;;13.60;1.00;;;;;;6339444;22;20490;-57
2023/08/28 03:47:36;;;;;;;2.40;2.20;;;13.60;1.00;;;;;;6340501;22;20218;-58
2023/08/28 03:50:01;;;;;;;2.80;2.53;;;13.60;1.00;;;;;;6339110;22;20128;-55
2023/08/28 03:52:27;;;;;;;3.50;2.50;;;13.50;1.00;;;;;;6340697;22;20294;-58
2023/08/28 03:54:52;;;;;;;2.50;2.30;;;13.50;1.00;;;;;;6340864;22;20237;-57
2023/08/28 03:57:18;;;;;;;2.57;2.37;;;13.50;1.00;;;;;;6341406;22;20194;-58
2023/08/28 03:59:44;;;;;;;5.90;2.63;;;13.50;1.00;;;;;;6340402;22;20151;-57
2023/08/28 04:02:09;;;;;;;2.73;2.53;;;13.50;1.00;;;;;;6340307;22;20418;-55
2023/08/28 04:04:35;;;;;;;3.13;2.80;;;13.50;1.00;;;;;;6340447;22;20135;-54
2023/08/28 04:07:02;;;;;;;3.83;2.57;;;13.50;1.00;;;;;;6342154;22;20175;-55
2023/08/28 04:09:28;;;;;;;3.43;2.60;;;13.50;1.00;;;;;;6342329;22;20200;-54
2023/08/28 04:11:54;;;;;;;2.93;2.50;;;13.50;1.00;;;;;;6340518;22;20397;-50
2023/08/28 04:14:19;;;;;;;3.40;2.50;;;13.50;1.00;;;;;;6339036;22;20370;-55
2023/08/28 04:16:45;;;;;;;3.73;2.57;;;13.50;1.00;;;;;;6339576;22;20146;-51
2023/08/28 04:19:10;;;;;;;3.20;2.70;;;13.60;1.00;;;;;;6338833;22;20466;-53
2023/08/28 04:21:36;;;;;;;3.50;2.27;;;13.60;1.00;;;;;;6340007;22;20162;-51
2023/08/28 04:24:02;;;;;;;4.30;2.30;;;13.60;1.00;;;;;;6339228;22;20151;-52
2023/08/28 04:26:27;;;;;;;2.20;2.00;;;13.50;1.00;;;;;;6338199;22;20764;-54
2023/08/28 04:28:53;;;;;;;2.50;2.20;;;13.50;1.00;;;;;;6340338;22;20143;-51
2023/08/28 04:31:19;;;;;;;3.23;2.77;;;13.60;1.00;;;;;;6341203;22;20151;-52
2023/08/28 04:33:45;;;;;;;2.53;2.33;;;13.50;1.00;;;;;;6341198;22;20392;-51
2023/08/28 04:36:10;;;;;;;2.70;2.50;;;13.50;1.00;;;;;;6339141;22;20163;-52
2023/08/28 04:38:36;;;;;;;3.27;2.73;;;13.50;1.00;;;;;;6339179;22;20152;-55
2023/08/28 04:41:05;;;;;;;2.70;2.50;;;13.60;1.00;;;;;;6338411;22;20154;-55
2023/08/28 04:43:31;;;;;;;4.70;2.47;;;13.60;1.00;;;;;;6338323;22;20194;-52
2023/08/28 04:45:56;;;;;;;2.90;2.63;;;13.60;1.00;;;;;;6339267;22;20448;-55
2023/08/28 04:48:22;;;;;;;5.73;3.20;;;13.60;1.00;;;;;;6339384;22;20147;-50
2023/08/28 04:50:47;;;;;;;3.20;2.97;;;13.60;1.00;;;;;;6338834;22;20735;-51
2023/08/28 04:53:13;;;;;;;4.37;3.37;;;13.60;1.00;;;;;;6338484;22;20151;-52
2023/08/28 04:55:42;;;;;;;4.07;3.43;;;13.70;1.00;;;;;;6338564;22;20150;-51
2023/08/28 04:58:08;;;;;;;5.93;3.47;;;13.60;1.00;;;;;;6341118;22;20495;-51
2023/08/28 05:00:33;;;;;;;3.40;2.53;;;13.60;1.00;;;;;;6339313;22;20485;-52
2023/08/28 05:02:59;;;;;;;3.23;2.93;;;13.60;1.00;;;;;;6340501;22;20151;-53
2023/08/28 05:05:24;;;;;;;4.03;2.97;;;13.60;1.00;;;;;;6339175;22;20216;-54
2023/08/28 05:07:50;;;;;;;3.70;3.03;;;13.60;1.00;;;;;;6339977;22;20147;-52
2023/08/28 05:10:16;;;;;;;5.33;3.60;;;13.60;1.00;;;;;;6341842;22;20267;-55
2023/08/28 05:12:41;;;;;;;4.23;3.70;;;13.60;1.00;;;;;;6341786;22;20175;-51
2023/08/28 05:15:07;;;;;;;3.33;2.90;;;13.60;1.00;;;;;;6340803;22;20177;-50
2023/08/28 05:17:33;;;;;;;3.37;2.90;;;13.60;1.00;;;;;;6340164;22;20233;-53
2023/08/28 05:19:59;;;;;;;4.30;3.13;;;13.60;1.00;;;;;;6339862;22;20644;-50
2023/08/28 05:22:24;;;;;;;3.40;3.10;;;13.60;1.00;;;;;;6339190;22;20389;-54
2023/08/28 05:24:50;;;;;;;3.57;2.97;;;13.60;1.00;;;;;;6339446;22;20226;-52
2023/08/28 05:27:16;;;;;;;3.60;3.30;;;13.60;1.00;;;;;;6338879;22;20175;-52
2023/08/28 05:29:43;;;;;;;3.57;3.23;;;13.70;1.00;;;;;;6339082;22;20148;-55
2023/08/28 05:32:09;;;;;;;3.97;3.67;;;13.70;1.00;;;;;;6338020;22;20519;-52
2023/08/28 05:34:34;;;;;;;5.33;3.30;;;13.60;1.00;;;;;;6337774;22;20354;-54
2023/08/28 05:37:00;;;;;;;3.57;3.27;;;13.60;1.00;;;;;;6335971;22;20505;-54
2023/08/28 05:39:26;;;;;;;4.77;2.97;;;13.60;1.00;;;;;;6337416;22;20231;-53
2023/08/28 05:41:52;;;;;;;4.03;3.63;;;13.60;1.00;;;;;;6336491;22;20686;-52
2023/08/28 05:44:17;;;;;;;3.77;3.33;;;13.60;1.00;;;;;;6336268;22;20211;-54
2023/08/28 05:46:43;;;;;;;4.17;3.87;;;13.70;1.00;;;;;;6336601;22;20432;-51
2023/08/28 05:49:09;;;;;;;5.73;4.10;;;13.70;1.00;;;;;;6338334;22;20235;-51
2023/08/28 05:51:34;;;;;;;5.83;3.67;;;13.70;1.00;;;;;;6338886;22;20527;-55
2023/08/28 05:54:00;;;;;;;3.87;3.50;;;13.70;1.00;;;;;;6339257;22;20222;-53
2023/08/28 05:56:25;;;;;;;3.77;3.37;;;13.80;1.00;;;;;;6339236;22;20151;-54
2023/08/28 05:58:51;;;;;;;4.23;3.43;;;13.80;1.00;;;;;;6337085;22;20510;-54
2023/08/28 06:01:17;;;;;;;3.90;3.50;;;13.80;1.00;;;;;;6339099;22;20148;-53
2023/08/28 06:03:42;;;;;;;4.10;3.70;;;13.80;1.00;;;;;;6338781;22;20622;-54
2023/08/28 06:06:08;;;;;;;8.03;3.97;;;13.80;1.00;;;;;;6338429;22;20423;-53
2023/08/28 06:08:35;;;;;;;3.40;3.10;;;13.80;1.00;;;;;;6336524;22;20237;-50
2023/08/28 06:11:03;;;;;;;4.90;4.23;;;13.90;1.00;;;;;;6338254;22;20196;-55
2023/08/28 06:13:29;;;;;;;5.80;3.57;;;13.90;1.00;;;;;;6337354;22;20426;-53
2023/08/28 06:15:56;;;;;;;4.97;3.57;;;13.90;1.00;;;;;;6338195;22;20385;-51
2023/08/28 06:18:23;;;;;;;4.23;3.83;;;14.00;1.00;;;;;;6337337;22;20491;-55
2023/08/28 06:20:49;;;;;;;9.43;4.50;;;14.00;1.00;;;;;;6337164;22;20450;-53
2023/08/28 06:23:17;;;;;;;4.10;3.63;;;14.00;1.00;;;;;;6337905;22;20389;-52
2023/08/28 06:25:47;;;;;;;4.83;4.30;;;14.00;1.00;;;;;;6336461;22;20175;-53
2023/08/28 06:28:14;;;;;;;4.27;3.87;;;14.10;1.00;;;;;;6337121;22;20388;-54
2023/08/28 06:30:40;;;;;;;4.70;3.67;;;14.10;1.00;;;;;;6339193;22;20381;-53
2023/08/28 06:33:06;;;;;;;4.50;4.10;;;14.10;1.00;;;;;;6337550;22;20420;-52
2023/08/28 06:35:32;;;;;;;6.83;3.90;;;14.20;1.00;;;;;;6337792;22;20370;-53
2023/08/28 06:37:58;;;;;;;5.97;4.37;;;14.30;1.00;;;;;;6337677;22;20662;-55
2023/08/28 06:40:23;;;;;;;4.20;3.87;;;14.30;1.00;;;;;;6340438;22;20749;-52
2023/08/28 06:42:51;;;;;;;7.13;3.70;;;14.40;1.00;;;;;;6339483;22;20435;-55
2023/08/28 06:45:17;;;;;;;4.50;3.93;;;14.40;1.00;;;;;;6339977;22;20181;-52
2023/08/28 06:47:43;;;;;;;4.37;3.80;;;14.40;1.00;;;;;;6339945;22;20433;-51
2023/08/28 06:50:09;;;;;;;6.70;4.50;;;14.50;1.00;;;;;;6341549;22;20391;-53
2023/08/28 06:52:36;;;;;;;5.33;4.83;;;14.50;1.00;;;;;;6340341;22;20511;-51
2023/08/28 06:55:03;;;;;;;4.77;4.37;;;14.60;1.00;;;;;;6341130;22;20414;-55
2023/08/28 06:57:28;;;;;;;4.83;4.43;;;14.60;1.00;;;;;;6338749;22;20367;-52
2023/08/28 06:59:54;;;;;;;4.80;4.40;;;14.60;1.00;;;;;;6340158;22;20729;-54
2023/08/28 07:02:21;;;;;;;4.73;4.20;;;14.70;99.90;;;;;;6339628;22;20143;-52
2023/08/28 07:04:47;;;;;;;6.90;4.70;;;14.70;99.90;;;;;;6339820;22;20155;-56
2023/08/28 07:07:18;;;;;;;5.10;4.57;;;14.60;99.90;;;;;;6339896;22;20716;-52
2023/08/28 07:09:44;;;;;;;5.17;4.63;;;14.70;99.90;;;;;;6339099;22;20153;-53
2023/08/28 07:12:09;;;;;;;5.97;5.40;;;14.70;99.90;;;;;;6336831;22;20854;-54
2023/08/28 07:14:35;;;;;;;6.17;4.70;;;14.70;1.00;;;;;;6336066;22;20460;-54
2023/08/28 07:17:02;;;;;;;5.70;4.80;;;14.80;1.00;;;;;;6336601;22;20549;-55
2023/08/28 07:19:27;;;;;;;6.03;5.13;;;14.80;1.00;;;;;;6334353;22;20475;-56
2023/08/28 07:21:54;;;;;;;5.30;4.90;;;14.80;99.90;;;;;;6336749;22;20409;-53
2023/08/28 07:24:20;;;;;;;5.80;5.13;;;14.80;1.00;;;;;;6336698;22;20533;-54
2023/08/28 07:26:46;;;;;;;5.77;5.27;;;14.80;99.90;;;;;;6336492;22;20456;-51
2023/08/28 07:29:11;;;;;;;6.23;5.73;;;14.80;99.90;;;;;;6337307;22;20127;-52
2023/08/28 07:31:37;;;;;;;5.67;5.17;;;14.90;99.90;;;;;;6337785;22;20135;-54
2023/08/28 07:34:04;;;;;;;5.30;4.60;;;14.80;99.90;;;;;;6339336;22;20151;-53
2023/08/28 07:36:30;;;;;;;7.23;6.53;;;14.80;99.90;;;;;;6339411;22;20251;-55
2023/08/28 07:38:56;;;;;;;6.90;6.30;;;14.80;99.90;;;;;;6340610;22;20358;-54
2023/08/28 07:41:21;;;;;;;6.80;6.30;;;14.80;99.90;;;;;;6340733;22;20527;-53
2023/08/28 07:43:47;;;;;;;5.43;4.93;;;14.80;99.90;;;;;;6340317;22;20206;-54
2023/08/28 07:46:13;;;;;;;7.07;6.27;;;14.90;99.90;;;;;;6339959;22;20178;-55
2023/08/28 07:48:39;;;;;;;7.20;5.17;;;15.00;99.90;;;;;;6312934;22;20397;-53
2023/08/28 07:51:05;;;;;;;5.73;5.10;;;15.20;99.90;;;;;;6338417;22;20174;-54
2023/08/28 07:53:30;;;;;;;5.27;4.77;;;15.40;99.90;;;;;;6339963;22;20653;-52
2023/08/28 07:55:57;;;;;;;6.53;4.90;;;15.50;99.90;;;;;;6337966;22;20159;-53
2023/08/28 07:58:23;;;;;;;6.40;5.00;;;15.70;99.90;;;;;;6336879;22;20570;-51
2023/08/28 08:00:48;;;;;;;8.90;4.80;;;15.90;99.90;;;;;;6336846;22;20506;-57
2023/08/28 08:03:14;;;;;;;4.50;4.10;;;16.10;99.90;;;;;;6335119;22;20579;-57
2023/08/28 08:05:40;;;;;;;4.43;4.03;;;16.30;99.90;;;;;;6336904;22;20139;-57
2023/08/28 08:08:06;;;;;;;3.97;3.67;;;16.50;99.90;;;;;;6338094;22;20147;-57
2023/08/28 08:10:32;;;;;;;5.20;4.13;;;16.70;27.50;;;;;;6337392;22;20449;-53
2023/08/28 08:12:59;;;;;;;5.17;4.47;;;16.80;1.00;;;;;;6313475;22;20657;-57
2023/08/28 08:15:31;;;;;;;6.70;4.23;;;17.00;1.00;;;;;;6338297;22;20389;-58
2023/08/28 08:18:01;;;;;;;4.53;4.00;;;17.10;1.00;;;;;;6340189;22;20357;-59
2023/08/28 08:20:28;;;;;;;4.27;3.87;;;17.10;1.00;;;;;;6338205;22;20409;-57
2023/08/28 08:22:54;;;;;;;4.03;3.63;;;17.20;1.00;;;;;;6338187;22;20396;-57
2023/08/28 08:25:22;;;;;;;4.73;4.33;;;17.40;99.90;;;;;;6340655;22;20407;-56
2023/08/28 08:27:48;;;;;;;3.90;3.60;;;17.50;99.90;;;;;;6339074;22;20179;-58
2023/08/28 08:30:17;;;;;;;5.97;4.40;;;17.60;99.90;;;;;;6338413;22;20793;-59
2023/08/28 08:32:43;;;;;;;4.77;4.37;;;17.70;2.90;;;;;;6337863;22;20350;-58
2023/08/28 08:35:11;;;;;;;4.77;4.37;;;17.70;48.80;;;;;;6337944;22;20792;-57
2023/08/28 08:37:37;;;;;;;4.90;4.00;;;17.80;97.10;;;;;;6338631;22;20175;-58
2023/08/28 08:40:03;;;;;;;6.30;4.43;;;17.70;99.90;;;;;;6337087;22;20461;-58
2023/08/28 08:42:29;;;;;;;4.50;3.63;;;17.70;99.90;;;;;;6336453;22;20298;-57
2023/08/28 08:44:56;;;;;;;5.40;4.07;;;17.70;99.90;;;;;;6338246;22;20919;-56
2023/08/28 08:47:23;;;;;;;4.10;3.27;;;17.70;1.00;;;;;;6340626;22;20420;-58
2023/08/28 08:49:54;;;;;;;4.43;3.33;;;17.60;99.90;;;;;;6337492;22;20159;-57
2023/08/28 08:52:21;;;;;;;5.07;4.57;;;17.70;99.90;;;;;;6337764;22;20785;-56
2023/08/28 08:54:47;;;;;;;5.53;3.97;;;17.70;1.00;;;;;;6338490;22;20739;-55
2023/08/28 08:57:43;;;;;;;4.53;3.77;;;17.60;1.00;;;;;;6337556;22;20362;-57
2023/08/28 09:00:17;;;;;;;4.53;3.57;;;17.50;14.10;;;;;;6338190;22;20389;-57
2023/08/28 09:02:43;;;;;;;6.40;3.93;;;17.50;1.00;;;;;;6338668;22;20441;-54
2023/08/28 09:05:09;;;;;;;4.90;3.67;;;17.70;57.00;;;;;;6338340;22;20479;-57
2023/08/28 09:07:37;;;;;;;4.27;3.87;;;17.90;7.70;;;;;;6340379;22;20206;-57
2023/08/28 09:10:04;;;;;;;3.83;3.43;;;18.10;99.90;;;;;;6338905;22;20381;-58
2023/08/28 09:12:30;;;;;;;3.80;3.50;;;18.30;99.90;;;;;;6338783;22;20478;-57
2023/08/28 09:14:57;;;;;;;4.67;3.53;;;18.30;1.00;;;;;;6337698;22;20350;-58
2023/08/28 09:17:25;;;;;;;4.70;3.20;;;18.50;99.90;;;;;;6335993;22;20377;-59
2023/08/28 09:19:53;;;;;;;4.00;3.60;;;18.50;1.00;;;;;;6338152;22;20656;-57
2023/08/28 09:22:25;;;;;;;4.70;3.90;;;18.50;1.00;;;;;;6338885;22;20450;-57
2023/08/28 09:24:54;;;;;;;3.27;2.97;;;18.60;99.90;;;;;;6338659;22;20390;-58
2023/08/28 09:27:21;;;;;;;5.07;3.40;;;18.60;99.90;;;;;;6338675;22;20404;-59
2023/08/28 09:29:47;;;;;;;4.30;3.33;;;18.60;53.20;;;;;;6337982;22;20422;-57
2023/08/28 09:32:16;;;;;;;3.13;2.80;;;18.60;1.00;;;;;;6338997;22;20747;-56
2023/08/28 09:34:42;;;;;;;3.57;3.17;;;18.60;1.00;;;;;;6336939;22;20472;-58
2023/08/28 09:37:11;;;;;;;3.10;2.80;;;18.60;1.00;;;;;;6338447;22;20472;-57
2023/08/28 09:39:54;;;;;;;5.97;3.70;;;18.60;1.00;;;;;;6338749;22;20466;-55
2023/08/28 09:42:24;;;;;;;3.63;3.30;;;18.50;99.90;;;;;;6334915;22;20429;-57
2023/08/28 09:44:50;;;;;;;3.87;3.47;;;18.40;1.00;;;;;;6336696;22;20429;-57
2023/08/28 09:47:23;;;;;;;4.73;3.00;;;18.40;1.00;;;;;;6308138;22;20429;-56
2023/08/28 09:49:51;;;;;;;5.93;3.73;;;18.30;1.00;;;;;;6333786;22;20483;-56
2023/08/28 09:52:26;;;;;;;3.37;3.07;;;18.30;1.00;;;;;;6334607;22;20726;-57
2023/08/28 09:55:05;;;;;;;4.37;3.27;;;18.40;99.90;;;;;;6335787;22;20449;-55
2023/08/28 09:57:32;;;;;;;3.20;2.80;;;18.50;99.90;;;;;;6335515;22;20385;-57
2023/08/28 09:59:59;;;;;;;2.67;2.47;;;18.60;99.90;;;;;;6336105;22;20396;-56
2023/08/28 10:02:27;;;;;;;3.10;2.80;;;18.70;99.90;;;;;;6336675;22;20392;-57
2023/08/28 10:04:55;;;;;;;2.67;2.47;;;18.60;99.90;;;;;;6338923;22;20393;-55
2023/08/28 10:07:26;;;;;;;3.33;2.33;;;18.80;1.00;;;;;;6337975;22;20436;-57
2023/08/28 10:09:53;;;;;;;5.17;2.90;;;18.90;1.00;;;;;;6312306;22;20462;-57
2023/08/28 10:12:21;;;;;;;5.60;3.10;;;19.10;1.00;;;;;;6336296;22;20362;-59
2023/08/28 10:14:48;;;;;;;3.00;2.30;;;19.20;99.90;;;;;;6339153;22;20368;-57
2023/08/28 10:17:15;;;;;;;3.63;2.63;;;19.40;99.90;;;;;;6337536;22;20445;-56
2023/08/28 10:19:54;;;;;;;4.10;3.70;;;19.50;99.90;;;;;;6337260;22;20681;-57
2023/08/28 10:22:22;;;;;;;4.90;2.40;;;19.60;1.00;;;;;;6336374;22;20392;-59
2023/08/28 10:24:49;;;;;;;2.97;2.30;;;19.70;1.00;;;;;;6337499;22;20414;-58
2023/08/28 10:27:16;;;;;;;4.13;2.47;;;19.90;1.00;;;;;;6335393;22;20407;-59
2023/08/28 10:29:46;;;;;;;3.30;2.57;;;20.10;1.00;;;;;;6338342;22;20375;-59
2023/08/28 10:32:13;;;;;;;4.77;2.70;;;20.40;1.00;;;;;;6338346;22;20369;-57
2023/08/28 10:34:40;;;;;;;2.67;2.47;;;20.60;1.00;;;;;;6337759;22;20441;-58
2023/08/28 10:37:09;;;;;;;2.70;2.27;;;20.70;1.00;;;;;;6336853;22;20391;-59
2023/08/28 10:39:42;;;;;;;4.80;2.40;;;20.90;1.00;;;;;;6336711;22;20923;-57
2023/08/28 10:42:20;;;;;;;2.73;2.50;;;21.10;99.90;;;;;;6336948;22;20804;-58
2023/08/28 10:44:46;;;;;;;2.20;2.00;;;21.30;99.90;;;;;;6335373;22;20423;-57
2023/08/28 10:47:17;;;;;;;3.40;2.37;;;21.50;99.90;;;;;;6335581;22;20431;-58
2023/08/28 10:49:46;;;;;;;3.57;2.30;;;21.80;99.90;;;;;;6336943;22;20396;-58
2023/08/28 10:52:11;;;;;;;3.37;2.90;;;22.10;99.90;;;;;;6336437;22;20431;-59
2023/08/28 10:54:39;;;;;;;3.60;2.77;;;22.30;99.90;;;;;;6336307;22;20482;-60
2023/08/28 10:57:12;;;;;;;3.03;2.20;;;22.20;99.90;;;;;;6336630;22;20186;-59
2023/08/28 10:59:48;;;;;;;2.20;2.00;;;22.20;99.90;;;;;;6338152;22;20773;-58
2023/08/28 11:02:13;;;;;;;3.00;2.50;;;22.30;99.90;;;;;;6338021;22;20400;-59
2023/08/28 11:04:40;;;;;;;2.87;2.60;;;22.30;99.90;;;;;;6334683;22;20408;-56
2023/08/28 11:07:30;;;;;;;4.17;2.17;;;22.10;92.00;;;;;;6337029;22;20484;-57
2023/08/28 11:10:17;;;;;;;2.93;2.60;;;21.80;95.80;;;;;;6274762;22;20404;-59
2023/08/28 11:12:54;;;;;;;3.57;2.40;;;21.50;72.50;;;;;;6336205;22;20369;-58
2023/08/28 11:15:28;;;;;;;5.03;2.67;;;21.20;97.40;;;;;;6335328;22;20887;-57
2023/08/28 11:18:16;;;;;;;2.30;2.10;;;20.90;98.10;;;;;;6337013;22;20626;-59
2023/08/28 11:20:42;;;;;;;3.10;2.80;;;20.60;99.90;;;;;;6336244;22;20405;-58
2023/08/28 11:23:08;;;;;;;2.43;2.20;;;20.70;99.90;;;;;;6335483;22;20435;-60
2023/08/28 11:25:39;;;;;;;4.53;2.30;;;20.80;99.90;;;;;;6337409;22;20158;-59
2023/08/28 11:28:04;;;;;;;2.67;2.43;;;20.80;99.90;;;;;;6338164;22;20158;-59
2023/08/28 11:30:30;;;;;;;3.23;2.20;;;20.90;99.90;;;;;;6339260;22;20389;-57
2023/08/28 11:32:56;;;;;;;2.50;2.30;;;20.90;99.90;;;;;;6335785;22;20354;-59
2023/08/28 11:35:23;;;;;;;2.20;2.00;;;20.90;99.90;;;;;;6337664;22;20228;-59
2023/08/28 11:37:51;;;;;;;5.00;2.30;;;21.00;99.90;;;;;;6337902;22;20446;-58
2023/08/28 11:40:18;;;;;;;6.50;2.90;;;21.10;99.90;;;;;;6337431;22;20679;-60
2023/08/28 11:42:46;;;;;;;3.50;2.70;;;21.10;97.30;;;;;;6337901;22;20444;-57
2023/08/28 11:45:18;;;;;;;3.73;2.60;;;20.80;99.20;;;;;;6337514;22;20409;-57
2023/08/28 11:47:44;;;;;;;3.00;2.53;;;20.50;96.90;;;;;;6338753;22;20429;-59
2023/08/28 11:50:10;;;;;;;2.90;2.60;;;20.30;99.90;;;;;;6339971;22;20373;-57
2023/08/28 11:52:35;;;;;;;2.80;2.50;;;20.20;99.90;;;;;;6339161;22;20405;-56
2023/08/28 11:55:04;;;;;;;2.90;2.53;;;20.00;99.90;;;;;;6338576;22;20163;-58
2023/08/28 11:57:31;;;;;;;2.37;2.17;;;19.80;99.90;;;;;;6339346;22;20169;-57
2023/08/28 11:59:59;;;;;;;2.93;2.63;;;19.80;99.90;;;;;;6339020;22;20660;-57
2023/08/28 12:02:26;;;;;;;3.20;2.80;;;19.80;99.90;;;;;;6339710;22;20393;-57
2023/08/28 12:04:53;;;;;;;2.63;2.43;;;19.90;99.90;;;;;;6342135;22;20636;-57
2023/08/28 12:07:24;;;;;;;3.20;2.33;;;19.80;99.90;;;;;;6337861;22;20431;-58
2023/08/28 12:09:52;;;;;;;2.27;2.07;;;19.70;99.90;;;;;;6336875;22;20393;-57
2023/08/28 12:12:19;;;;;;;3.13;2.60;;;19.60;99.90;;;;;;6335550;22;20392;-57
2023/08/28 12:14:46;;;;;;;2.17;2.03;;;19.70;99.90;;;;;;6340932;22;20396;-58
2023/08/28 12:17:20;;;;;;;2.57;2.27;;;19.70;99.90;;;;;;6338733;22;20806;-58
2023/08/28 12:19:49;;;;;;;2.70;2.50;;;19.80;99.90;;;;;;6337326;22;20386;-59
2023/08/28 12:22:15;;;;;;;6.47;2.80;;;19.80;99.90;;;;;;6338186;22;20416;-57
2023/08/28 12:24:46;;;;;;;2.70;2.50;;;19.80;99.90;;;;;;6338873;22;20393;-58
2023/08/28 12:27:13;;;;;;;4.97;2.33;;;19.70;99.90;;;;;;6337060;22;20401;-57
2023/08/28 12:29:42;;;;;;;2.93;2.70;;;19.80;99.90;;;;;;6338550;22;20386;-56
2023/08/28 12:32:14;;;;;;;5.60;2.37;;;19.90;99.90;;;;;;6338130;22;20635;-64
2023/08/28 12:34:40;;;;;;;3.10;2.80;;;20.10;99.90;;;;;;6337221;22;20688;-58
2023/08/28 12:37:08;;;;;;;3.13;2.83;;;20.40;99.90;;;;;;6338096;22;20463;-55
2023/08/28 12:39:34;;;;;;;3.60;2.93;;;20.60;99.90;;;;;;6340104;22;20158;-58
2023/08/28 12:42:00;;;;;;;2.83;2.50;;;20.50;99.90;;;;;;6338108;22;20357;-58
2023/08/28 12:44:27;;;;;;;3.30;3.00;;;20.50;99.90;;;;;;6337732;22;20484;-56
2023/08/28 12:46:54;;;;;;;3.10;2.80;;;20.30;99.90;;;;;;6336940;22;20683;-58
2023/08/28 12:49:20;;;;;;;3.20;2.83;;;20.20;99.90;;;;;;6339571;22;20391;-57
2023/08/28 12:51:46;;;;;;;3.87;2.70;;;20.10;99.90;;;;;;6338077;22;20385;-57
2023/08/28 12:54:13;;;;;;;3.10;2.73;;;20.00;99.90;;;;;;6339245;22;20515;-57